Time;durP1;ratioP1;P1;durP2;ratioP2;P2;SDS_P1;SDS_P2;PMS_P1;PMS_P2;Temp;Humidity;BMP_temperature;BMP_pressure;BME280_temperature;BME280_humidity;BME280_pressure;Samples;Min_cycle;Max_cycle;Signal;HPM_P1;HPM_P2
2023/08/27 00:01:29;;;;;;;;;;;;;;;-140.72;100.00;52766.25;6277314;22;19916;-70
2023/08/27 00:03:55;;;;;;;;;;;;;;;-140.72;100.00;52770.31;6275313;22;19980;-70
2023/08/27 00:06:22;;;;;;;;;;;;;;;-140.72;100.00;52760.19;6277232;22;19911;-70
2023/08/27 00:08:47;;;;;;;;;;;;;;;-140.72;100.00;52754.09;6275558;22;19990;-69
2023/08/27 00:11:12;;;;;;;;;;;;;;;-140.72;100.00;52768.28;6302789;22;19957;-69
2023/08/27 00:13:37;;;;;;;;;;;;;;;-140.72;100.00;52752.06;6279298;22;19911;-69
2023/08/27 00:16:04;;;;;;;;;;;;;;;-140.72;100.00;52784.53;6277228;22;19945;-68
2023/08/27 00:18:29;;;;;;;;;;;;;;;-140.72;100.00;52796.72;6275113;22;19918;-69
2023/08/27 00:20:54;;;;;;;;;;;;;;;-140.72;100.00;52810.91;6276662;22;19907;-69
2023/08/27 00:23:19;;;;;;;;;;;;;;;-140.72;100.00;52748.00;6276730;22;19965;-69
2023/08/27 00:25:45;;;;;;;;;;;;;;;-140.72;100.00;52800.75;6277092;22;19997;-70
2023/08/27 00:28:14;;;;;;;;;;;;;;;-140.72;100.00;52743.94;6277505;22;19911;-69
2023/08/27 00:30:39;;;;;;;;;;;;;;;-140.72;100.00;52760.19;6277063;22;20251;-69
2023/08/27 00:33:04;;;;;;;;;;;;;;;-140.72;100.00;52760.19;6275034;22;19946;-70
2023/08/27 00:35:31;;;;;;;;;;;;;;;-140.72;100.00;52758.16;6300247;22;20189;-70
2023/08/27 00:37:57;;;;;;;;;;;;;;;-140.72;100.00;52735.81;6276917;22;19984;-69
2023/08/27 00:40:22;;;;;;;;;;;;;;;-140.72;100.00;52743.94;6277155;22;19986;-69
2023/08/27 00:42:47;;;;;;;;;;;;;;;-140.72;100.00;52772.34;6277145;22;19912;-69
2023/08/27 00:45:12;;;;;;;;;;;;;;;-140.72;100.00;52768.28;6275131;22;19918;-69
2023/08/27 00:47:38;;;;;;;;;;;;;;;-140.72;100.00;52741.91;6274882;22;19911;-69
2023/08/27 00:50:07;;;;;;;;;;;;;;;-140.72;100.00;52792.66;6275234;22;19968;-69
2023/08/27 00:52:32;;;;;;;;;;;;;;;-140.72;100.00;52754.09;6276703;22;19989;-69
2023/08/27 00:54:59;;;;;;;;;;;;;;;-140.72;100.00;52741.91;6276557;22;20268;-69
2023/08/27 00:57:25;;;;;;;;;;;;;;;-140.72;100.00;52776.41;6275051;22;19915;-69
2023/08/27 00:59:50;;;;;;;;;;;;;;;-140.72;100.00;52735.81;6276925;22;19918;-69
2023/08/27 01:02:15;;;;;;;;;;;;;;;-140.72;100.00;52776.41;6276842;22;19912;-69
2023/08/27 01:04:40;;;;;;;;;;;;;;;-140.72;100.00;52760.19;6276683;22;19911;-69
2023/08/27 01:07:19;;;;;;;;;;;;;;;-140.72;100.00;52782.50;6276142;22;20259;-69
2023/08/27 01:09:47;;;;;;;;;;;;;;;-140.72;100.00;52776.41;6276982;22;19957;-69
2023/08/27 01:12:13;;;;;;;;;;;;;;;-140.72;100.00;52745.97;6278425;22;19976;-69
2023/08/27 01:14:41;;;;;;;;;;;;;;;-140.72;100.00;52750.03;6278878;22;19915;-69
2023/08/27 01:17:07;;;;;;;;;;;;;;;-140.72;100.00;52782.50;6278387;22;20402;-69
2023/08/27 01:19:33;;;;;;;;;;;;;;;-140.72;100.00;52760.19;6276985;22;19950;-69
2023/08/27 01:22:00;;;;;;;;;;;;;;;-140.72;100.00;52776.41;6277219;22;19912;-68
2023/08/27 01:24:26;;;;;;;;;;;;;;;-140.72;100.00;52780.47;6278529;22;19911;-69
2023/08/27 01:27:13;;;;;;;;;;;;;;;-140.72;100.00;52794.69;6277050;22;19922;-69
2023/08/27 01:29:45;;;;;;;;;;;;;;;-140.72;100.00;52735.81;6278589;22;19972;-69
2023/08/27 01:32:24;;;;;;;;;;;;;;;-140.72;100.00;52784.53;6278481;22;19911;-69
2023/08/27 01:34:51;;;;;;;;;;;;;;;-140.72;100.00;52745.97;6276450;22;19915;-68
2023/08/27 01:37:17;;;;;;;;;;;;;;;-140.72;100.00;52784.53;6278679;22;19922;-69
2023/08/27 01:39:42;;;;;;;;;;;;;;;-140.72;100.00;52790.63;6278569;22;19912;-69
2023/08/27 01:42:07;;;;;;;;;;;;;;;-140.72;100.00;52784.53;6278250;22;20236;-69
2023/08/27 01:44:33;;;;;;;;;;;;;;;-140.72;100.00;52790.63;6276954;22;19938;-69
2023/08/27 01:46:58;;;;;;;;;;;;;;;-140.72;100.00;52776.41;6276480;22;19918;-69
2023/08/27 01:49:23;;;;;;;;;;;;;;;-140.72;100.00;52748.00;6278217;22;19915;-69
2023/08/27 01:51:49;;;;;;;;;;;;;;;-140.72;100.00;52729.75;6278298;22;19918;-69
2023/08/27 01:54:33;;;;;;;;;;;;;;;-140.72;100.00;52770.31;6276688;22;19911;-69
2023/08/27 01:56:58;;;;;;;;;;;;;;;-140.72;100.00;52741.91;6278079;22;19934;-69
2023/08/27 01:59:24;;;;;;;;;;;;;;;-140.72;100.00;52792.66;6276460;22;19915;-69
2023/08/27 02:01:49;;;;;;;;;;;;;;;-140.72;100.00;52762.22;6277402;22;20022;-69
2023/08/27 02:04:14;;;;;;;;;;;;;;;-140.72;100.00;52774.38;6278611;22;19918;-68
2023/08/27 02:06:40;;;;;;;;;;;;;;;-140.72;100.00;52782.50;6277897;22;19995;-69
2023/08/27 02:09:06;;;;;;;;;;;;;;;-140.72;100.00;52774.38;6277989;22;19919;-69
2023/08/27 02:11:31;;;;;;;;;;;;;;;-140.72;100.00;52748.00;6278412;22;20232;-68
2023/08/27 02:13:56;;;;;;;;;;;;;;;-140.72;100.00;52764.25;6277154;22;19915;-69
2023/08/27 02:16:22;;;;;;;;;;;;;;;-140.72;100.00;52788.59;6278098;22;19911;-68
2023/08/27 02:18:47;;;;;;;;;;;;;;;-140.72;100.00;52772.34;6275970;22;19911;-68
2023/08/27 02:21:14;;;;;;;;;;;;;;;-140.72;100.00;52800.75;6277657;22;19922;-68
2023/08/27 02:23:39;;;;;;;;;;;;;;;-140.72;100.00;52711.47;6277724;22;19911;-69
2023/08/27 02:26:04;;;;;;;;;;;;;;;-140.72;100.00;52772.34;6276207;22;19918;-69
2023/08/27 02:28:30;;;;;;;;;;;;;;;-140.72;100.00;52800.75;6277678;22;19911;-69
2023/08/27 02:31:08;;;;;;;;;;;;;;;-140.72;100.00;52774.38;6275821;22;20231;-69
2023/08/27 02:33:33;;;;;;;;;;;;;;;-140.72;100.00;52768.28;6276857;22;19915;-69
2023/08/27 02:35:58;;;;;;;;;;;;;;;-140.72;100.00;52750.03;6277930;22;19994;-69
2023/08/27 02:38:34;;;;;;;;;;;;;;;-140.72;100.00;52752.06;6277374;22;19919;-69
2023/08/27 02:40:59;;;;;;;;;;;;;;;-140.72;100.00;52762.22;6276251;22;19912;-69
2023/08/27 02:43:31;;;;;;;;;;;;;;;-140.72;100.00;52784.53;6301953;22;19956;-69
2023/08/27 02:45:57;;;;;;;;;;;;;;;-140.72;100.00;52764.25;6275933;22;19915;-70
2023/08/27 02:48:22;;;;;;;;;;;;;;;-140.72;100.00;52750.03;6278018;22;19911;-71
2023/08/27 02:50:48;;;;;;;;;;;;;;;-140.72;100.00;52768.28;6275816;22;19950;-69
2023/08/27 02:53:14;;;;;;;;;;;;;;;-140.72;100.00;52760.19;6302004;22;19927;-69
2023/08/27 02:55:39;;;;;;;;;;;;;;;-140.72;100.00;52780.47;6277488;22;20287;-69
2023/08/27 02:58:04;;;;;;;;;;;;;;;-140.72;100.00;52760.19;6275889;22;19990;-69
2023/08/27 03:00:30;;;;;;;;;;;;;;;-140.72;100.00;52778.44;6301943;22;19912;-69
2023/08/27 03:02:56;;;;;;;;;;;;;;;-140.72;100.00;52764.25;6277777;22;20248;-69
2023/08/27 03:05:21;;;;;;;;;;;;;;;-140.72;100.00;52741.91;6301635;22;19918;-68
2023/08/27 03:07:47;;;;;;;;;;;;;;;-140.72;100.00;52739.88;6275722;22;19922;-69
2023/08/27 03:10:13;;;;;;;;;;;;;;;-140.72;100.00;52780.47;6275493;22;19915;-68
2023/08/27 03:12:38;;;;;;;;;;;;;;;-140.72;100.00;52776.41;6275842;22;19911;-69
2023/08/27 03:15:04;;;;;;;;;;;;;;;-140.72;100.00;52790.63;6277572;22;19934;-69
2023/08/27 03:17:29;;;;;;;;;;;;;;;-140.72;100.00;52766.25;6301723;22;19911;-69
2023/08/27 03:19:54;;;;;;;;;;;;;;;-140.72;100.00;52758.16;6275451;22;19994;-69
2023/08/27 03:22:19;;;;;;;;;;;;;;;-140.72;100.00;52760.19;6277221;22;19911;-68
2023/08/27 03:24:46;;;;;;;;;;;;;;;-140.72;100.00;52804.81;6277079;22;19917;-69
2023/08/27 03:27:12;;;;;;;;;;;;;;;-140.72;100.00;52764.25;6277764;22;19911;-69
2023/08/27 03:29:37;;;;;;;;;;;;;;;-140.72;100.00;52752.06;6275865;22;19919;-69
2023/08/27 03:32:03;;;;;;;;;;;;;;;-140.72;100.00;52798.72;6301377;22;19915;-69
2023/08/27 03:34:28;;;;;;;;;;;;;;;-140.72;100.00;52794.69;6275293;22;19922;-69
2023/08/27 03:36:53;;;;;;;;;;;;;;;-140.72;100.00;52825.13;6275771;22;19984;-69
2023/08/27 03:39:18;;;;;;;;;;;;;;;-140.72;100.00;52804.81;6277549;22;19915;-69
2023/08/27 03:41:44;;;;;;;;;;;;;;;-140.72;100.00;52798.72;6275313;22;19911;-69
2023/08/27 03:44:10;;;;;;;;;;;;;;;-140.72;100.00;52800.75;6276146;22;19922;-69
2023/08/27 03:46:36;;;;;;;;;;;;;;;-140.72;100.00;52800.75;6278029;22;19911;-69
2023/08/27 03:49:02;;;;;;;;;;;;;;;-140.72;100.00;52782.50;6275396;22;19919;-69
2023/08/27 03:51:28;;;;;;;;;;;;;;;-140.72;100.00;52776.41;6276010;22;20288;-69
2023/08/27 03:53:55;;;;;;;;;;;;;;;-140.72;100.00;52790.63;6277871;22;19918;-69
2023/08/27 03:56:20;;;;;;;;;;;;;;;-140.72;100.00;52770.31;6277346;22;20302;-69
2023/08/27 03:58:51;;;;;;;;;;;;;;;-140.72;100.00;52812.94;6276674;22;19911;-69
2023/08/27 04:01:17;;;;;;;;;;;;;;;-140.72;100.00;52806.84;6277105;22;19945;-68
2023/08/27 04:03:42;;;;;;;;;;;;;;;-140.72;100.00;52780.47;6276843;22;20300;-68
2023/08/27 04:06:12;;;;;;;;;;;;;;;-140.72;100.00;52812.94;6275180;22;20248;-69
2023/08/27 04:08:37;;;;;;;;;;;;;;;-140.72;100.00;52819.03;6275203;22;19912;-69
2023/08/27 04:11:04;;;;;;;;;;;;;;;-140.72;100.00;52857.59;6275433;22;19912;-69
2023/08/27 04:13:33;;;;;;;;;;;;;;;-140.72;100.00;52788.59;6275219;22;20224;-69
2023/08/27 04:15:59;;;;;;;;;;;;;;;-140.72;100.00;52790.63;6300569;22;20002;-69
2023/08/27 04:18:30;;;;;;;;;;;;;;;-140.72;100.00;52788.59;6301257;22;20314;-69
2023/08/27 04:20:55;;;;;;;;;;;;;;;-140.72;100.00;52782.50;6278183;22;20221;-69
2023/08/27 04:23:21;;;;;;;;;;;;;;;-140.72;100.00;52778.44;6276980;22;19911;-70
2023/08/27 04:25:46;;;;;;;;;;;;;;;-140.72;100.00;52819.03;6301241;22;19922;-70
2023/08/27 04:28:12;;;;;;;;;;;;;;;-140.72;100.00;52825.13;6275206;22;19911;-69
2023/08/27 04:30:37;;;;;;;;;;;;;;;-140.72;100.00;52808.88;6275226;22;19994;-69
2023/08/27 04:33:05;;;;;;;;;;;;;;;-140.72;100.00;52798.72;6276642;22;19922;-69
2023/08/27 04:35:30;;;;;;;;;;;;;;;-140.72;100.00;52806.84;6275310;22;19919;-69
2023/08/27 04:37:55;;;;;;;;;;;;;;;-140.72;100.00;52808.88;6276766;22;19911;-69
2023/08/27 04:40:21;;;;;;;;;;;;;;;-140.72;100.00;52778.44;6276712;22;19990;-69
2023/08/27 04:42:46;;;;;;;;;;;;;;;-140.72;100.00;52776.41;6276771;22;19915;-69
2023/08/27 04:45:12;;;;;;;;;;;;;;;-140.72;100.00;52812.94;6276082;22;19911;-69
2023/08/27 04:47:37;;;;;;;;;;;;;;;-140.72;100.00;52796.72;6302738;22;20240;-69
2023/08/27 04:50:03;;;;;;;;;;;;;;;-140.72;100.00;52786.56;6278902;22;19911;-69
2023/08/27 04:52:28;;;;;;;;;;;;;;;-140.72;100.00;52825.13;6276858;22;19962;-69
2023/08/27 04:54:55;;;;;;;;;;;;;;;-140.72;100.00;52794.69;6276974;22;19915;-69
2023/08/27 04:57:20;;;;;;;;;;;;;;;-140.72;100.00;52796.72;6278999;22;19915;-69
2023/08/27 04:59:45;;;;;;;;;;;;;;;-140.72;100.00;52812.94;6303037;22;19961;-75
2023/08/27 05:02:10;;;;;;;;;;;;;;;-140.72;100.00;52774.38;6279263;22;19911;-70
2023/08/27 05:04:36;;;;;;;;;;;;;;;-140.72;100.00;52825.13;6277531;22;19981;-71
2023/08/27 05:07:01;;;;;;;;;;;;;;;-140.72;100.00;52782.50;6302739;22;19986;-72
2023/08/27 05:09:26;;;;;;;;;;;;;;;-140.72;100.00;52814.97;6277463;22;19922;-74
2023/08/27 05:11:51;;;;;;;;;;;;;;;-140.72;100.00;52794.69;6276654;22;19934;-71
2023/08/27 05:14:17;;;;;;;;;;;;;;;-140.72;100.00;52808.88;6278540;22;19917;-70
2023/08/27 05:16:46;;;;;;;;;;;;;;;-140.72;100.00;52808.88;6275572;22;19915;-68
2023/08/27 05:19:11;;;;;;;;;;;;;;;-140.72;100.00;52825.13;6277028;22;19918;-70
2023/08/27 05:21:37;;;;;;;;;;;;;;;-140.72;100.00;52788.59;6275793;22;19912;-69
2023/08/27 05:24:02;;;;;;;;;;;;;;;-140.72;100.00;52776.41;6277452;22;19922;-69
2023/08/27 05:26:27;;;;;;;;;;;;;;;-140.72;100.00;52814.97;6276314;22;19915;-70
2023/08/27 05:28:52;;;;;;;;;;;;;;;-140.72;100.00;52845.41;6278523;22;19957;-70
2023/08/27 05:31:22;;;;;;;;;;;;;;;-140.72;100.00;52804.81;6278507;22;19912;-71
2023/08/27 05:33:48;;;;;;;;;;;;;;;-140.72;100.00;52812.94;6276670;22;19962;-68
2023/08/27 05:36:13;;;;;;;;;;;;;;;-140.72;100.00;52814.97;6278178;22;19922;-68
2023/08/27 05:38:39;;;;;;;;;;;;;;;-140.72;100.00;52821.06;6276116;22;19961;-69
2023/08/27 05:41:04;;;;;;;;;;;;;;;-140.72;100.00;52790.63;6302975;22;19911;-69
2023/08/27 05:43:29;;;;;;;;;;;;;;;-140.72;100.00;52788.59;6284052;22;19931;-69
2023/08/27 05:45:55;;;;;;;;;;;;;;;-140.72;100.00;52792.66;6307673;22;19912;-69
2023/08/27 05:48:20;;;;;;;;;;;;;;;-140.72;100.00;52774.38;6302903;22;19911;-69
2023/08/27 05:50:45;;;;;;;;;;;;;;;-140.72;100.00;52800.75;6277830;22;19972;-69
2023/08/27 05:53:15;;;;;;;;;;;;;;;-140.72;100.00;52798.72;6278264;22;19911;-69
2023/08/27 05:55:40;;;;;;;;;;;;;;;-140.72;100.00;52784.53;6278293;22;19978;-70
2023/08/27 05:58:06;;;;;;;;;;;;;;;-140.72;100.00;52802.78;6278555;22;19918;-69
2023/08/27 06:00:36;;;;;;;;;;;;;;;-140.72;100.00;52782.50;6275976;22;19911;-70
2023/08/27 06:03:01;;;;;;;;;;;;;;;-140.72;100.00;52800.75;6277848;22;19912;-78
2023/08/27 06:05:26;;;;;;;;;;;;;;;-140.72;100.00;52784.53;6279107;22;19938;-75
2023/08/27 06:07:52;;;;;;;;;;;;;;;-140.72;100.00;52774.38;6280284;22;19943;-77
2023/08/27 06:10:17;;;;;;;;;;;;;;;-140.72;100.00;52786.56;6279557;22;19991;-78
2023/08/27 06:12:42;;;;;;;;;;;;;;;-140.72;100.00;52764.25;6281956;22;20236;-78
2023/08/27 06:15:08;;;;;;;;;;;;;;;-140.72;100.00;52808.88;6285219;22;19911;-77
2023/08/27 06:17:33;;;;;;;;;;;;;;;-140.72;100.00;52756.13;6282747;22;19934;-77
2023/08/27 06:19:59;;;;;;;;;;;;;;;-140.72;100.00;52819.03;6279716;22;19911;-78
2023/08/27 06:22:25;;;;;;;;;;;;;;;-140.72;100.00;52764.25;6285056;22;19918;-77
2023/08/27 06:24:50;;;;;;;;;;;;;;;-140.72;100.00;52745.97;6283359;22;19911;-78
2023/08/27 06:27:15;;;;;;;;;;;;;;;-140.72;100.00;52760.19;6283401;22;20048;-77
2023/08/27 06:29:44;;;;;;;;;;;;;;;-140.72;100.00;52725.69;6283333;22;20306;-77
2023/08/27 06:32:30;;;;;;;;;;;;;;;-140.72;100.00;52717.56;6280074;22;20312;-78
2023/08/27 06:34:55;;;;;;;;;;;;;;;-140.72;100.00;52711.47;6280842;22;19915;-78
2023/08/27 06:37:21;;;;;;;;;;;;;;;-140.72;100.00;52756.13;6280771;22;19911;-77
2023/08/27 06:39:46;;;;;;;;;;;;;;;-140.72;100.00;52721.63;6281998;22;19923;-78
2023/08/27 06:42:12;;;;;;;;;;;;;;;-140.72;100.00;52729.75;6303071;22;20385;-76
2023/08/27 06:44:37;;;;;;;;;;;;;;;-140.72;100.00;52768.28;6303219;22;19915;-77
2023/08/27 06:47:03;;;;;;;;;;;;;;;-140.72;100.00;52772.34;6278607;22;20003;-75
2023/08/27 06:49:29;;;;;;;;;;;;;;;-140.72;100.00;52721.63;6281823;22;19927;-77
2023/08/27 06:51:54;;;;;;;;;;;;;;;-140.72;100.00;52739.88;6282102;22;19915;-77
2023/08/27 06:54:19;;;;;;;;;;;;;;;-140.72;100.00;52709.44;6287715;22;19975;-78
2023/08/27 06:56:44;;;;;;;;;;;;;;;-140.72;100.00;52697.28;6291859;22;19919;-79
2023/08/27 06:59:14;;;;;;;;;;;;;;;-140.72;100.00;52727.72;6293691;22;19935;-79
2023/08/27 07:01:39;;;;;;;;;;;;;;;-140.72;100.00;52727.72;6285972;22;20006;-76
2023/08/27 07:04:05;;;;;;;;;;;;;;;-140.72;100.00;52695.25;6277055;22;19957;-75
2023/08/27 07:06:30;;;;;;;;;;;;;;;-140.72;100.00;52699.31;6278159;22;19998;-76
2023/08/27 07:08:55;;;;;;;;;;;;;;;-140.72;100.00;52689.16;6277726;22;20346;-77
2023/08/27 07:11:21;;;;;;;;;;;;;;;-140.72;100.00;52693.22;6279169;22;19911;-76
2023/08/27 07:13:46;;;;;;;;;;;;;;;-140.72;100.00;52666.84;6277603;22;19911;-76
2023/08/27 07:16:12;;;;;;;;;;;;;;;-140.72;100.00;52679.00;6280371;22;19933;-76
2023/08/27 07:18:38;;;;;;;;;;;;;;;-140.72;100.00;52679.00;6277622;22;19981;-77
2023/08/27 07:21:03;;;;;;;;;;;;;;;-140.72;100.00;52679.00;6277786;22;19942;-76
2023/08/27 07:23:28;;;;;;;;;;;;;;;-140.72;100.00;52676.97;6278009;22;19918;-77
2023/08/27 07:25:53;;;;;;;;;;;;;;;-140.72;100.00;52711.47;6277102;22;19995;-71
2023/08/27 07:28:19;;;;;;;;;;;;;;;-140.72;100.00;52666.84;6301985;22;19960;-71
2023/08/27 07:30:44;;;;;;;;;;;;;;;-140.72;100.00;52676.97;6276934;22;19947;-71
2023/08/27 07:33:11;;;;;;;;;;;;;;;-140.72;100.00;52681.03;6281086;22;19922;-77
2023/08/27 07:35:36;;;;;;;;;;;;;;;-140.72;100.00;52713.50;6292260;22;19917;-78
2023/08/27 07:38:01;;;;;;;;;;;;;;;-140.72;100.00;52705.38;6278876;22;20356;-77
2023/08/27 07:40:26;;;;;;;;;;;;;;;-140.72;100.00;52703.34;6304938;22;19921;-77
2023/08/27 07:42:52;;;;;;;;;;;;;;;-140.72;100.00;52717.56;6279905;22;19907;-78
2023/08/27 07:45:17;;;;;;;;;;;;;;;-140.72;100.00;52674.94;6283497;22;20341;-78
2023/08/27 07:47:43;;;;;;;;;;;;;;;-140.72;97.30;52711.47;6303920;22;19962;-78
2023/08/27 07:50:09;;;;;;;;;;;;;;;-140.72;89.71;52685.09;6283338;22;19982;-77
2023/08/27 07:52:36;;;;;;;;;;;;;;;-140.72;72.73;52679.00;6283954;22;19911;-75
2023/08/27 07:55:03;;;;;;;;;;;;;;;-140.72;61.32;52662.78;6280079;22;19919;-77
2023/08/27 07:57:28;;;;;;;;;;;;;;;-140.72;60.57;52668.84;6284325;22;19994;-77
2023/08/27 07:59:59;;;;;;;;;;;;;;;-140.72;54.69;52656.69;6280749;22;19911;-76
2023/08/27 08:02:24;;;;;;;;;;;;;;;-140.72;39.38;52683.06;6276754;22;19946;-76
2023/08/27 08:04:49;;;;;;;;;;;;;;;-140.72;38.08;52695.25;6277599;22;19914;-76
2023/08/27 08:07:15;;;;;;;;;;;;;;;-140.72;47.63;52662.78;6276032;22;19919;-77
2023/08/27 08:09:58;;;;;;;;;;;;;;;-140.72;63.14;52715.53;6277607;22;19931;-78
2023/08/27 08:12:24;;;;;;;;;;;;;;;-140.72;74.50;52660.75;6278746;22;19918;-79
2023/08/27 08:14:52;;;;;;;;;;;;;;;-140.72;76.32;52705.38;6277725;22;19912;-77
2023/08/27 08:17:17;;;;;;;;;;;;;;;-140.72;88.49;52699.31;6280671;22;19961;-79
2023/08/27 08:20:09;;;;;;;;;;;;;;;-140.72;65.56;52707.41;6277926;22;19912;-77
2023/08/27 08:22:34;;;;;;;;;;;;;;;-140.72;57.82;52699.31;6278376;22;19950;-77
2023/08/27 08:25:00;;;;;;;;;;;;;;;-140.72;59.30;52723.66;6278718;22;19919;-78
2023/08/27 08:27:25;;;;;;;;;;;;;;;-140.72;71.73;52707.41;6280040;22;19911;-79
2023/08/27 08:29:50;;;;;;;;;;;;;;;-140.72;78.77;52743.94;6279965;22;20001;-78
2023/08/27 08:32:15;;;;;;;;;;;;;;;-140.72;85.21;52721.63;6282281;22;20082;-76
2023/08/27 08:34:41;;;;;;;;;;;;;;;-140.72;81.13;52697.28;6282837;22;19923;-79
2023/08/27 08:37:06;;;;;;;;;;;;;;;-140.72;66.36;52681.03;6289549;22;19920;-78
2023/08/27 08:39:31;;;;;;;;;;;;;;;-140.72;64.19;52685.09;6289130;22;19911;-78
2023/08/27 08:42:02;;;;;;;;;;;;;;;-140.72;51.85;52650.59;6294070;22;19911;-79
2023/08/27 08:44:45;;;;;;;;;;;;;;;-140.72;47.59;52705.38;6291463;22;19915;-78
2023/08/27 08:47:11;;;;;;;;;;;;;;;-140.72;38.20;52707.41;6281839;22;19911;-77
2023/08/27 08:49:38;;;;;;;;;;;;;;;-140.72;34.99;52717.56;6279630;22;19954;-77
2023/08/27 08:52:07;;;;;;;;;;;;;;;-140.72;33.88;52662.78;6282734;22;20248;-78
2023/08/27 08:54:33;;;;;;;;;;;;;;;-140.72;22.22;52695.25;6282752;22;19911;-74
2023/08/27 08:57:03;;;;;;;;;;;;;;;-140.72;0.00;52589.72;6279462;22;19911;-78
2023/08/27 08:59:29;;;;;;;;;;;;;;;-140.72;0.00;52526.81;6279747;22;19918;-73
2023/08/27 09:01:55;;;;;;;;;;;;;;;-140.72;0.00;52626.25;6282500;22;19911;-77
2023/08/27 09:04:26;;;;;;;;;;;;;;;-140.72;0.00;52555.22;6280423;22;19915;-78
2023/08/27 09:06:54;;;;;;;;;;;;;;;-140.72;0.00;52626.25;6279094;22;19922;-75
2023/08/27 09:09:20;;;;;;;;;;;;;;;-140.72;0.00;52624.22;6280674;22;20248;-77
2023/08/27 09:11:45;;;;;;;;;;;;;;;-140.72;0.00;52601.91;6281925;22;19911;-74
2023/08/27 09:14:13;;;;;;;;;;;;;;;-140.72;0.00;52603.94;6285401;22;20008;-78
2023/08/27 09:16:38;;;;;;;;;;;;;;;-140.72;0.00;52630.31;6283801;22;19918;-77
2023/08/27 09:19:03;;;;;;;;;;;;;;;-140.72;0.00;52607.97;6281038;22;19989;-71
2023/08/27 09:21:29;;;;;;;;;;;;;;;-140.72;0.00;52622.19;6277303;22;19953;-75
2023/08/27 09:23:55;;;;;;;;;;;;;;;-140.72;0.00;52573.50;6280204;22;19911;-72
2023/08/27 09:26:20;;;;;;;;;;;;;;;-140.72;0.00;52585.66;6279425;22;19917;-72
2023/08/27 09:28:45;;;;;;;;;;;;;;;-140.72;0.00;52549.13;6276886;22;19911;-72
2023/08/27 09:31:11;;;;;;;;;;;;;;;-140.72;0.00;52577.53;6276378;22;19991;-70
2023/08/27 09:33:37;;;;;;;;;;;;;;;-140.72;0.00;52626.25;6302716;22;19988;-70
2023/08/27 09:36:02;;;;;;;;;;;;;;;-140.72;0.00;52634.38;6277024;22;19939;-76
2023/08/27 09:38:28;;;;;;;;;;;;;;;-140.72;0.00;52662.78;6277038;22;19911;-73
2023/08/27 09:40:53;;;;;;;;;;;;;;;-140.72;0.00;52642.47;6276220;22;19911;-72
2023/08/27 09:43:25;;;;;;;;;;;;;;;-140.72;0.00;52715.53;6278623;22;19911;-72
2023/08/27 09:45:51;;;;;;;;;;;;;;;-140.72;0.00;52668.84;6276510;22;19919;-72
2023/08/27 09:48:22;;;;;;;;;;;;;;;-140.72;0.00;52711.47;6276838;22;19957;-72
2023/08/27 09:50:47;;;;;;;;;;;;;;;-140.72;0.00;52707.41;6277729;22;19938;-73
2023/08/27 09:53:12;;;;;;;;;;;;;;;-140.72;0.00;52756.13;6277710;22;19920;-73
2023/08/27 09:56:12;;;;;;;;;;;;;;;-140.72;0.00;52711.47;6278578;22;20355;-72
2023/08/27 09:58:38;;;;;;;;;;;;;;;-140.72;0.00;52715.53;6278487;22;19915;-72
2023/08/27 10:01:03;;;;;;;;;;;;;;;-140.72;0.00;52780.47;6278462;22;19919;-72
2023/08/27 10:03:29;;;;;;;;;;;;;;;-140.72;4.32;52784.53;6277152;22;19912;-72
2023/08/27 10:05:54;;;;;;;;;;;;;;;-140.72;27.00;52739.88;6277135;22;19911;-70
2023/08/27 10:08:20;;;;;;;;;;;;;;;-140.72;47.94;52802.78;6302283;22;19911;-73
2023/08/27 10:10:45;;;;;;;;;;;;;;;-140.72;77.12;52776.41;6278778;22;19986;-74
2023/08/27 10:13:13;;;;;;;;;;;;;;;-140.72;100.00;52756.13;6277050;22;19915;-73
2023/08/27 10:15:38;;;;;;;;;;;;;;;-140.72;100.00;52800.75;6277904;22;19934;-74
2023/08/27 10:18:04;;;;;;;;;;;;;;;-140.72;100.00;52737.84;6282304;22;20348;-72
2023/08/27 10:20:30;;;;;;;;;;;;;;;-140.72;100.00;52796.72;6279280;22;19911;-73
2023/08/27 10:22:56;;;;;;;;;;;;;;;-140.72;100.00;52741.91;6279234;22;19911;-71
2023/08/27 10:25:21;;;;;;;;;;;;;;;-140.72;100.00;52731.75;6277803;22;20423;-72
2023/08/27 10:27:48;;;;;;;;;;;;;;;-140.72;100.00;52705.38;6279119;22;20256;-71
2023/08/27 10:30:14;;;;;;;;;;;;;;;-140.72;100.00;52729.75;6279580;22;19911;-75
2023/08/27 10:32:39;;;;;;;;;;;;;;;-140.72;100.00;52705.38;6277643;22;19915;-72
2023/08/27 10:35:05;;;;;;;;;;;;;;;-140.72;100.00;52676.97;6276334;22;19915;-71
2023/08/27 10:37:31;;;;;;;;;;;;;;;-140.72;100.00;52719.59;6276030;22;19915;-71
2023/08/27 10:39:59;;;;;;;;;;;;;;;-140.72;100.00;52664.81;6277266;22;19988;-71
2023/08/27 10:42:34;;;;;;;;;;;;;;;-140.72;100.00;52628.28;6300938;22;19911;-70
2023/08/27 10:45:24;;;;;;;;;;;;;;;-140.72;73.00;52559.28;6277741;22;19911;-76
2023/08/27 10:48:06;;;;;;;;;;;;;;;-140.72;0.00;52530.88;6263161;22;19961;-76
2023/08/27 10:50:46;;;;;;;;;;;;;;;-140.72;0.00;52520.72;6301505;22;19911;-72
2023/08/27 10:53:37;;;;;;;;;;;;;;;-140.72;0.00;52524.78;6276335;22;19997;-72
2023/08/27 10:56:23;;;;;;;;;;;;;;;-140.72;0.00;52512.59;6278114;22;19915;-75
2023/08/27 10:58:48;;;;;;;;;;;;;;;-140.72;0.00;52514.63;6276004;22;19918;-71
2023/08/27 11:01:14;;;;;;;;;;;;;;;-140.72;0.00;52553.19;6276302;22;19911;-75
2023/08/27 11:03:58;;;;;;;;;;;;;;;-140.72;0.00;52601.91;6276470;22;19917;-74
2023/08/27 11:06:36;;;;;;;;;;;;;;;-140.72;0.00;52597.84;6276936;22;19960;-72
2023/08/27 11:09:02;;;;;;;;;;;;;;;-140.72;0.00;52656.69;6276329;22;19912;-71
2023/08/27 11:11:30;;;;;;;;;;;;;;;-140.72;0.00;52656.69;6276634;22;19987;-71
2023/08/27 11:14:04;;;;;;;;;;;;;;;-140.72;0.00;52630.31;6282435;22;19915;-73
2023/08/27 11:16:29;;;;;;;;;;;;;;;-140.72;0.00;52597.84;6277963;22;19922;-70
2023/08/27 11:18:55;;;;;;;;;;;;;;;-140.72;0.00;52622.19;6276987;22;19979;-70
2023/08/27 11:21:41;;;;;;;;;;;;;;;-140.72;0.00;52561.31;6277494;22;20313;-71
2023/08/27 11:24:12;;;;;;;;;;;;;;;-140.72;0.00;52553.19;6276779;22;20251;-72
2023/08/27 11:26:39;;;;;;;;;;;;;;;-140.72;0.00;52478.13;6277055;22;19938;-71
2023/08/27 11:29:06;;;;;;;;;;;;;;;-140.72;0.00;52474.06;6277338;22;20321;-70
2023/08/27 11:31:31;;;;;;;;;;;;;;;-140.72;0.00;52455.78;6275249;22;20010;-68
2023/08/27 11:33:57;;;;;;;;;;;;;;;-140.72;0.00;52492.31;6276788;22;19955;-70
2023/08/27 11:36:22;;;;;;;;;;;;;;;-140.72;0.00;52465.94;6275072;22;19916;-70
2023/08/27 11:38:48;;;;;;;;;;;;;;;-140.72;0.00;52413.19;6275433;22;19986;-70
2023/08/27 11:41:13;;;;;;;;;;;;;;;-140.72;0.00;52451.72;6275417;22;20221;-72
2023/08/27 11:43:44;;;;;;;;;;;;;;;-140.72;0.00;52392.88;6277216;22;19911;-72
2023/08/27 11:46:22;;;;;;;;;;;;;;;-140.72;0.00;52325.94;6277132;22;19945;-72
2023/08/27 11:48:51;;;;;;;;;;;;;;;-140.72;0.00;52238.69;6275048;22;19915;-77
2023/08/27 11:51:17;;;;;;;;;;;;;;;-140.72;0.00;52202.16;6275722;22;19915;-76
2023/08/27 11:53:43;;;;;;;;;;;;;;;-140.72;0.00;52192.00;6276968;22;20347;-69
2023/08/27 11:56:15;;;;;;;;;;;;;;;-140.72;0.00;52121.00;6275468;22;19950;-69
2023/08/27 11:58:40;;;;;;;;;;;;;;;-140.72;0.00;52167.66;6274847;22;19930;-69
2023/08/27 12:01:06;;;;;;;;;;;;;;;-140.72;0.00;52269.13;6301130;22;20240;-68
2023/08/27 12:03:38;;;;;;;;;;;;;;;-140.72;0.00;52226.50;6277392;22;20286;-69
2023/08/27 12:06:04;;;;;;;;;;;;;;;-140.72;0.00;52277.22;6276726;22;19912;-69
2023/08/27 12:08:38;;;;;;;;;;;;;;;-140.72;0.00;52267.09;6274807;22;19911;-69
2023/08/27 12:11:04;;;;;;;;;;;;;;;-140.72;0.00;52214.34;6277055;22;19922;-69
2023/08/27 12:13:29;;;;;;;;;;;;;;;-140.72;0.00;52334.03;6276895;22;19916;-70
2023/08/27 12:15:55;;;;;;;;;;;;;;;-140.72;0.00;52461.88;6276107;22;19911;-69
2023/08/27 12:18:20;;;;;;;;;;;;;;;-140.72;0.00;52536.97;6302922;22;19968;-69
2023/08/27 12:20:49;;;;;;;;;;;;;;;-140.72;0.00;52528.84;6276168;22;20113;-69
2023/08/27 12:23:14;;;;;;;;;;;;;;;-140.72;0.00;52557.25;6276869;22;19915;-69